createdAt,value
2024-01-05T00:00:21.655Z,99026.78
2024-01-05T00:03:02.079Z,99029.56
2024-01-05T00:05:35.389Z,99021.00
2024-01-05T00:08:05.761Z,99027.38
2024-01-05T00:10:47.445Z,99022.25
2024-01-05T00:13:22.224Z,99028.34
2024-01-05T00:15:53.586Z,99042.31
2024-01-05T00:18:27.408Z,99050.34
2024-01-05T00:20:58.619Z,99056.97
2024-01-05T00:23:31.141Z,99065.97
2024-01-05T00:26:06.540Z,99072.38
2024-01-05T00:28:41.147Z,99068.50
2024-01-05T00:31:15.002Z,99075.16
2024-01-05T00:33:52.725Z,99071.84
2024-01-05T00:36:26.230Z,99072.38
2024-01-05T00:38:59.034Z,99075.00
2024-01-05T00:41:30.294Z,99074.69
2024-01-05T00:44:04.024Z,99085.91
2024-01-05T00:46:35.868Z,99094.50
2024-01-05T00:49:09.938Z,99096.19
2024-01-05T00:51:40.358Z,99096.25
2024-01-05T00:54:11.207Z,99094.78
2024-01-05T00:56:45.419Z,99092.94
2024-01-05T00:59:22.382Z,99101.25
2024-01-05T01:01:54.828Z,99112.47
2024-01-05T01:04:28.176Z,99112.03
2024-01-05T01:07:03.126Z,99123.38
2024-01-05T01:09:35.866Z,99121.84
2024-01-05T01:12:11.657Z,99128.16
2024-01-05T01:14:42.499Z,99126.47
2024-01-05T01:17:17.718Z,99133.81
2024-01-05T01:19:51.081Z,99123.97
2024-01-05T01:22:23.193Z,99131.59
2024-01-05T01:24:54.793Z,99138.13
2024-01-05T01:27:32.349Z,99135.34
2024-01-05T01:30:04.537Z,99131.13
2024-01-05T01:32:43.691Z,99131.84
2024-01-05T01:35:19.193Z,99139.72
2024-01-05T01:37:55.654Z,99144.59
2024-01-05T01:40:27.822Z,99147.06
2024-01-05T01:42:59.748Z,99139.06
2024-01-05T01:45:37.788Z,99159.31
2024-01-05T01:48:09.064Z,99154.09
2024-01-05T01:50:46.494Z,99162.72
2024-01-05T01:53:23.678Z,99158.63
2024-01-05T01:55:57.750Z,99168.78
2024-01-05T01:58:32.008Z,99161.91
2024-01-05T02:01:03.301Z,99168.97
2024-01-05T02:03:37.815Z,99172.47
2024-01-05T02:06:10.917Z,99187.25
2024-01-05T02:08:51.795Z,99186.88
2024-01-05T02:11:25.072Z,99197.75
2024-01-05T02:13:55.843Z,99197.28
2024-01-05T02:16:26.674Z,99195.97
2024-01-05T02:18:59.769Z,99196.56
2024-01-05T02:21:36.306Z,99194.88
2024-01-05T02:24:13.634Z,99182.13
2024-01-05T02:26:44.285Z,99193.56
2024-01-05T02:29:22.976Z,99197.94
2024-01-05T02:31:56.605Z,99200.56
2024-01-05T02:34:29.677Z,99200.09
2024-01-05T02:37:05.461Z,99196.19
2024-01-05T02:39:38.871Z,99193.31
2024-01-05T02:42:12.311Z,99196.44
2024-01-05T02:44:42.773Z,99196.69
2024-01-05T02:47:13.085Z,99207.16
2024-01-05T02:49:44.593Z,99199.06
2024-01-05T02:52:22.136Z,99189.56
2024-01-05T02:55:02.738Z,99185.25
2024-01-05T02:57:36.718Z,99188.84
2024-01-05T03:00:09.405Z,99186.22
2024-01-05T03:02:47.341Z,99176.13
2024-01-05T03:05:22.258Z,99180.38
2024-01-05T03:07:54.733Z,99178.34
2024-01-05T03:10:31.233Z,99156.94
2024-01-05T03:13:04.095Z,99149.94
2024-01-05T03:15:42.075Z,99156.63
2024-01-05T03:18:15.741Z,99162.38
2024-01-05T03:20:46.630Z,99169.16
2024-01-05T03:23:19.595Z,99168.47
2024-01-05T03:25:57.548Z,99165.47
2024-01-05T03:28:35.882Z,99163.63
2024-01-05T03:31:06.992Z,99175.25
2024-01-05T03:33:38.784Z,99181.34
2024-01-05T03:36:10.648Z,99177.28
2024-01-05T03:38:40.947Z,99174.78
2024-01-05T03:41:20.117Z,99164.91
2024-01-05T03:43:50.332Z,99165.41
2024-01-05T03:46:21.483Z,99158.75
2024-01-05T03:48:52.651Z,99161.41
2024-01-05T03:51:26.572Z,99149.50
2024-01-05T03:54:07.301Z,99143.53
2024-01-05T03:56:50.377Z,99136.56
2024-01-05T03:59:22.501Z,99139.72
2024-01-05T04:01:56.062Z,99154.50
2024-01-05T04:04:27.619Z,99163.81
2024-01-05T04:07:01.252Z,99164.91
2024-01-05T04:09:32.992Z,99171.09
2024-01-05T04:12:13.755Z,99176.22
2024-01-05T04:14:44.548Z,99175.50
2024-01-05T04:17:18.538Z,99181.34
2024-01-05T04:19:49.635Z,99174.91
2024-01-05T04:22:22.935Z,99176.75
2024-01-05T04:24:53.927Z,99200.25
2024-01-05T04:27:27.785Z,99199.41
2024-01-05T04:30:03.718Z,99219.31
2024-01-05T04:32:41.050Z,99222.19
2024-01-05T04:35:15.636Z,99229.56
2024-01-05T04:37:46.461Z,99226.69
2024-01-05T04:40:19.106Z,99228.72
2024-01-05T04:42:52.489Z,99236.31
2024-01-05T04:45:23.846Z,99245.06
2024-01-05T04:47:54.992Z,99249.28
2024-01-05T04:50:26.171Z,99250.13
2024-01-05T04:52:59.286Z,99270.19
2024-01-05T04:55:29.949Z,99269.81
2024-01-05T04:58:06.119Z,99263.44
2024-01-05T05:00:36.550Z,99265.31
2024-01-05T05:03:11.499Z,99273.81
2024-01-05T05:05:43.412Z,99277.28
2024-01-05T05:08:17.820Z,99279.72
2024-01-05T05:10:48.928Z,99270.47
2024-01-05T05:13:24.951Z,99264.00
2024-01-05T05:15:55.990Z,99266.78
2024-01-05T05:18:28.853Z,99268.53
2024-01-05T05:21:03.892Z,99277.16
2024-01-05T05:23:34.579Z,99286.44
2024-01-05T05:26:09.586Z,99285.50
2024-01-05T05:28:46.309Z,99288.69
2024-01-05T05:31:20.197Z,99286.53
2024-01-05T05:33:51.391Z,99303.94
2024-01-05T05:36:26.720Z,99306.84
2024-01-05T05:38:59.622Z,99315.31
2024-01-05T05:41:30.380Z,99314.41
2024-01-05T05:44:05.847Z,99320.16
2024-01-05T05:46:39.271Z,99322.78
2024-01-05T05:49:15.861Z,99332.44
2024-01-05T05:51:47.064Z,99336.59
2024-01-05T05:54:18.328Z,99346.63
2024-01-05T05:56:49.150Z,99346.66
2024-01-05T05:59:29.064Z,99347.91
2024-01-05T06:01:59.997Z,99340.69
2024-01-05T06:04:30.326Z,99343.69
2024-01-05T06:07:00.923Z,99338.91
2024-01-05T06:09:31.818Z,99345.81
2024-01-05T06:12:15.394Z,99344.53
2024-01-05T06:14:52.029Z,99341.28
2024-01-05T06:17:23.783Z,99339.81
2024-01-05T06:19:57.702Z,99349.81
2024-01-05T06:22:31.411Z,99354.09
2024-01-05T06:25:01.884Z,99353.88
2024-01-05T06:27:38.888Z,99354.38
2024-01-05T06:30:16.037Z,99353.84
2024-01-05T06:32:47.067Z,99349.13
2024-01-05T06:35:23.939Z,99356.88
2024-01-05T06:37:54.714Z,99362.78
2024-01-05T06:40:25.917Z,99362.41
2024-01-05T06:42:59.142Z,99365.75
2024-01-05T06:45:33.738Z,99367.59
2024-01-05T06:48:04.737Z,99356.31
2024-01-05T06:50:37.738Z,99368.31
2024-01-05T06:53:08.868Z,99373.22
2024-01-05T06:55:40.328Z,99379.72
2024-01-05T06:58:17.592Z,99374.38
2024-01-05T07:00:51.253Z,99373.66
2024-01-05T07:03:24.966Z,99379.81
2024-01-05T07:06:02.874Z,99375.84
2024-01-05T07:08:33.328Z,99380.03
2024-01-05T07:11:08.687Z,99374.94
2024-01-05T07:13:41.863Z,99381.06
2024-01-05T07:16:22.979Z,99380.03
2024-01-05T07:18:55.138Z,99387.25
2024-01-05T07:21:26.013Z,99377.69
2024-01-05T07:23:56.742Z,99379.63
2024-01-05T07:26:27.973Z,99374.03
2024-01-05T07:29:01.094Z,99388.69
2024-01-05T07:31:34.569Z,99376.47
2024-01-05T07:34:05.702Z,99372.28
2024-01-05T07:36:37.058Z,99381.59
2024-01-05T07:39:07.495Z,99378.25
2024-01-05T07:41:47.602Z,99375.06
2024-01-05T07:44:25.887Z,99385.94
2024-01-05T07:47:00.997Z,99382.13
2024-01-05T07:49:33.934Z,99381.91
2024-01-05T07:52:09.624Z,99375.94
2024-01-05T07:54:43.647Z,99371.88
2024-01-05T07:57:19.691Z,99378.31
2024-01-05T07:59:54.888Z,99386.13
2024-01-05T08:02:30.730Z,99392.03
2024-01-05T08:05:05.602Z,99401.75
2024-01-05T08:07:36.425Z,99399.91
2024-01-05T08:10:08.397Z,99402.00
2024-01-05T08:12:46.393Z,99412.34
2024-01-05T08:15:17.611Z,99404.13
2024-01-05T08:17:53.333Z,99404.50
2024-01-05T08:20:30.569Z,99402.53
2024-01-05T08:23:08.118Z,99395.25
2024-01-05T08:25:40.956Z,99401.59
2024-01-05T08:28:14.034Z,99403.13
2024-01-05T08:30:48.830Z,99404.88
2024-01-05T08:33:22.416Z,99410.94
2024-01-05T08:35:55.443Z,99405.53
2024-01-05T08:38:26.620Z,99412.81
2024-01-05T08:40:57.001Z,99412.34
2024-01-05T08:43:28.907Z,99407.72
2024-01-05T08:46:02.418Z,99410.69
2024-01-05T08:48:35.313Z,99427.38
2024-01-05T08:51:06.098Z,99432.69
2024-01-05T08:53:36.522Z,99429.84
2024-01-05T08:56:08.692Z,99429.03
2024-01-05T08:58:42.010Z,99434.69
2024-01-05T09:01:14.830Z,99422.13
2024-01-05T09:03:50.681Z,99417.88
2024-01-05T09:06:22.289Z,99409.94
2024-01-05T09:08:55.532Z,99428.28
2024-01-05T09:11:26.904Z,99427.06
2024-01-05T09:13:57.287Z,99438.97
2024-01-05T09:16:30.053Z,99422.34
2024-01-05T09:19:05.553Z,99436.47
2024-01-05T09:21:37.337Z,99426.69
2024-01-05T09:24:09.278Z,99413.69
2024-01-05T09:26:43.672Z,99401.41
2024-01-05T09:29:14.671Z,99403.19
2024-01-05T09:31:49.481Z,99418.88
2024-01-05T09:34:28.830Z,99419.41
2024-01-05T09:37:02.749Z,99409.94
2024-01-05T09:39:33.047Z,99414.06
2024-01-05T09:42:04.019Z,99411.81
2024-01-05T09:44:35.832Z,99404.34
2024-01-05T09:47:12.151Z,99400.44
2024-01-05T09:49:49.857Z,99396.34
2024-01-05T09:52:24.342Z,99401.09
2024-01-05T09:54:57.988Z,99399.00
2024-01-05T09:57:32.033Z,99404.97
2024-01-05T10:00:05.382Z,99394.31
2024-01-05T10:02:40.816Z,99411.56
2024-01-05T10:05:15.540Z,99417.38
2024-01-05T10:07:46.867Z,99397.13
2024-01-05T10:10:17.238Z,99398.22
2024-01-05T10:12:49.156Z,99407.91
2024-01-05T10:15:22.638Z,99407.16
2024-01-05T10:17:53.574Z,99403.88
2024-01-05T10:20:33.375Z,99399.91
2024-01-05T10:23:08.267Z,99406.03
2024-01-05T10:25:40.566Z,99400.13
2024-01-05T10:28:24.613Z,99402.59
2024-01-05T10:30:56.817Z,99401.56
2024-01-05T10:33:30.086Z,99405.69
2024-01-05T10:36:08.918Z,99397.06
2024-01-05T10:38:42.451Z,99399.28
2024-01-05T10:41:13.363Z,99394.00
2024-01-05T10:43:54.092Z,99394.13
2024-01-05T10:46:26.166Z,99386.38
2024-01-05T10:49:06.171Z,99384.03
2024-01-05T10:51:40.518Z,99386.41
2024-01-05T10:54:11.987Z,99383.16
2024-01-05T10:56:48.388Z,99381.63
2024-01-05T10:59:24.640Z,99379.06
2024-01-05T11:01:59.298Z,99376.28
2024-01-05T11:04:36.415Z,99371.41
2024-01-05T11:07:10.862Z,99374.50
2024-01-05T11:09:53.120Z,99375.31
2024-01-05T11:12:44.375Z,99369.06
2024-01-05T11:15:37.880Z,99366.97
2024-01-05T11:18:40.533Z,99365.28
2024-01-05T11:21:17.677Z,99354.19
2024-01-05T11:23:55.388Z,99352.22
2024-01-05T11:26:37.407Z,99347.94
2024-01-05T11:29:14.270Z,99343.31
2024-01-05T11:31:59.861Z,99337.41
2024-01-05T11:34:39.255Z,99335.13
2024-01-05T11:37:09.806Z,99329.06
2024-01-05T11:39:56.692Z,99327.56
2024-01-05T11:42:35.712Z,99325.00
2024-01-05T11:45:16.132Z,99324.00
2024-01-05T11:47:51.105Z,99323.78
2024-01-05T11:50:29.022Z,99314.97
2024-01-05T11:53:18.607Z,99316.97
2024-01-05T11:55:57.487Z,99328.66
2024-01-05T11:58:34.475Z,99311.91
2024-01-05T12:01:08.574Z,99311.63
2024-01-05T12:03:40.006Z,99298.59
2024-01-05T12:06:13.653Z,99294.53
2024-01-05T12:08:47.452Z,99299.22
2024-01-05T12:11:24.331Z,99293.66
2024-01-05T12:13:55.077Z,99294.09
2024-01-05T12:16:29.630Z,99283.94
2024-01-05T12:19:00.436Z,99284.69
2024-01-05T12:21:34.797Z,99278.44
2024-01-05T12:24:06.928Z,99274.94
2024-01-05T12:26:40.497Z,99279.97
2024-01-05T12:29:12.020Z,99276.34
2024-01-05T12:31:48.191Z,99277.88
2024-01-05T12:34:20.442Z,99276.22
2024-01-05T12:36:51.300Z,99277.34
2024-01-05T12:39:28.046Z,99277.47
2024-01-05T12:42:02.720Z,99286.41
2024-01-05T12:44:36.885Z,99284.59
2024-01-05T12:47:08.868Z,99277.34
2024-01-05T12:49:40.244Z,99283.00
2024-01-05T12:52:16.159Z,99290.69
2024-01-05T12:54:49.914Z,99281.13
2024-01-05T12:57:28.330Z,99276.50
2024-01-05T13:00:07.761Z,99279.06
2024-01-05T13:02:42.261Z,99280.72
2024-01-05T13:05:28.466Z,99280.75
2024-01-05T13:07:59.916Z,99278.81
2024-01-05T13:10:35.931Z,99276.69
2024-01-05T13:13:12.901Z,99274.31
2024-01-05T13:15:47.515Z,99278.50
2024-01-05T13:18:21.677Z,99282.53
2024-01-05T13:20:52.158Z,99274.19
2024-01-05T13:23:25.999Z,99265.00
2024-01-05T13:25:56.385Z,99275.84
2024-01-05T13:28:30.412Z,99272.50
2024-01-05T13:31:03.295Z,99274.75
2024-01-05T13:33:36.528Z,99267.81
2024-01-05T13:36:10.402Z,99272.25
2024-01-05T13:38:41.155Z,99274.75
2024-01-05T13:41:12.435Z,99272.56
2024-01-05T13:43:43.318Z,99272.84
2024-01-05T13:46:13.903Z,99270.50
2024-01-05T13:48:53.855Z,99272.16
2024-01-05T13:51:30.272Z,99267.72
2024-01-05T13:54:13.739Z,99273.28
2024-01-05T13:56:51.083Z,99273.97
2024-01-05T13:59:25.299Z,99275.09
2024-01-05T14:01:56.156Z,99270.22
2024-01-05T14:04:29.893Z,99271.09
2024-01-05T14:07:07.084Z,99270.16
2024-01-05T14:09:40.417Z,99269.06
2024-01-05T14:12:14.192Z,99272.94
2024-01-05T14:14:49.959Z,99273.81
2024-01-05T14:17:20.386Z,99273.41
2024-01-05T14:19:53.791Z,99270.50
2024-01-05T14:22:27.759Z,99267.00
2024-01-05T14:24:59.148Z,99266.59
2024-01-05T14:27:35.778Z,99264.38
2024-01-05T14:30:11.391Z,99258.44
2024-01-05T14:32:42.520Z,99257.19
2024-01-05T14:35:15.355Z,99256.75
2024-01-05T14:37:47.804Z,99253.72
2024-01-05T14:40:20.331Z,99260.66
2024-01-05T14:42:53.101Z,99261.06
2024-01-05T14:45:29.881Z,99259.97
2024-01-05T14:48:05.167Z,99257.03
2024-01-05T14:50:43.376Z,99260.34
2024-01-05T14:53:15.532Z,99258.94
2024-01-05T14:55:47.128Z,99259.47
2024-01-05T14:58:17.956Z,99262.09
2024-01-05T15:00:53.063Z,99258.75
2024-01-05T15:03:25.520Z,99265.38
2024-01-05T15:06:00.492Z,99266.63
2024-01-05T15:08:31.481Z,99263.56
2024-01-05T15:11:06.111Z,99264.50
2024-01-05T15:13:39.133Z,99262.72
2024-01-05T15:16:14.509Z,99274.91
2024-01-05T15:18:47.892Z,99274.91
2024-01-05T15:21:27.017Z,99279.41
2024-01-05T15:24:04.018Z,99270.00
2024-01-05T15:26:35.277Z,99269.88
2024-01-05T15:29:09.940Z,99261.66
2024-01-05T15:31:50.777Z,99262.06
2024-01-05T15:34:21.385Z,99258.56
2024-01-05T15:36:53.199Z,99253.97
2024-01-05T15:39:23.633Z,99254.50
2024-01-05T15:41:58.222Z,99251.44
2024-01-05T15:44:28.614Z,99256.41
2024-01-05T15:47:02.400Z,99252.38
2024-01-05T15:49:33.573Z,99252.63
2024-01-05T15:52:16.344Z,99250.25
2024-01-05T15:54:52.682Z,99259.38
2024-01-05T15:57:28.679Z,99265.59
2024-01-05T15:59:59.822Z,99257.13
2024-01-05T16:02:40.697Z,99249.38
2024-01-05T16:05:12.619Z,99252.97
2024-01-05T16:07:43.825Z,99261.81
2024-01-05T16:10:14.821Z,99266.97
2024-01-05T16:12:45.595Z,99265.34
2024-01-05T16:15:24.524Z,99272.66
2024-01-05T16:17:58.496Z,99264.31
2024-01-05T16:20:32.320Z,99264.03
2024-01-05T16:23:05.698Z,99259.94
2024-01-05T16:25:37.539Z,99265.03
2024-01-05T16:28:24.169Z,99271.03
2024-01-05T16:30:58.298Z,99277.31
2024-01-05T16:33:35.118Z,99282.28
2024-01-05T16:36:13.932Z,99282.91
2024-01-05T16:38:45.889Z,99276.47
2024-01-05T16:41:25.281Z,99276.34
2024-01-05T16:43:56.769Z,99273.84
2024-01-05T16:46:27.306Z,99274.53
2024-01-05T16:49:00.871Z,99277.31
2024-01-05T16:51:32.658Z,99275.16
2024-01-05T16:54:06.753Z,99274.97
2024-01-05T16:56:46.932Z,99275.06
2024-01-05T16:59:21.409Z,99268.97
2024-01-05T17:01:51.518Z,99275.31
2024-01-05T17:04:24.622Z,99278.56
2024-01-05T17:06:55.191Z,99277.53
2024-01-05T17:09:25.949Z,99281.72
2024-01-05T17:11:58.333Z,99281.13
2024-01-05T17:14:30.209Z,99293.66
2024-01-05T17:17:07.046Z,99293.34
2024-01-05T17:19:40.103Z,99295.69
2024-01-05T17:22:13.160Z,99302.88
2024-01-05T17:24:44.723Z,99286.75
2024-01-05T17:27:20.140Z,99295.75
2024-01-05T17:29:56.314Z,99299.34
2024-01-05T17:32:27.133Z,99302.28
2024-01-05T17:35:11.282Z,99308.72
2024-01-05T17:37:42.154Z,99311.22
2024-01-05T17:40:15.712Z,99308.72
2024-01-05T17:42:46.060Z,99308.47
2024-01-05T17:45:17.161Z,99302.50
2024-01-05T17:47:50.821Z,99305.38
2024-01-05T17:50:28.107Z,99308.13
2024-01-05T17:53:03.021Z,99301.03
2024-01-05T17:55:36.911Z,99298.63
2024-01-05T17:58:20.927Z,99287.75
2024-01-05T18:00:53.824Z,99292.41
2024-01-05T18:03:29.689Z,99288.47
2024-01-05T18:06:03.081Z,99276.13
2024-01-05T18:08:36.615Z,99294.88
2024-01-05T18:11:10.873Z,99300.00
2024-01-05T18:13:41.684Z,99302.38
2024-01-05T18:16:24.392Z,99298.91
2024-01-05T18:18:58.514Z,99301.78
2024-01-05T18:21:34.666Z,99294.97
2024-01-05T18:24:13.404Z,99305.13
2024-01-05T18:26:45.594Z,99299.44
2024-01-05T18:29:24.590Z,99316.50
2024-01-05T18:32:07.919Z,99324.88
2024-01-05T18:34:38.940Z,99326.88
2024-01-05T18:37:17.922Z,99332.25
2024-01-05T18:39:50.691Z,99322.94
2024-01-05T18:42:21.125Z,99329.03
2024-01-05T18:44:54.009Z,99315.06
2024-01-05T18:47:32.057Z,99319.84
2024-01-05T18:50:05.387Z,99308.16
2024-01-05T18:52:44.953Z,99307.81
2024-01-05T18:55:18.830Z,99310.44
2024-01-05T18:57:50.926Z,99304.94
2024-01-05T19:00:21.999Z,99308.66
2024-01-05T19:02:59.344Z,99301.72
2024-01-05T19:05:30.522Z,99306.13
2024-01-05T19:08:06.312Z,99312.34
2024-01-05T19:10:41.701Z,99317.47
2024-01-05T19:13:15.092Z,99315.69
2024-01-05T19:15:48.946Z,99316.88
2024-01-05T19:18:23.086Z,99324.16
2024-01-05T19:20:57.506Z,99316.66
2024-01-05T19:23:31.443Z,99324.63
2024-01-05T19:26:03.137Z,99322.97
2024-01-05T19:28:33.825Z,99320.47
2024-01-05T19:31:05.815Z,99315.31
2024-01-05T19:33:37.313Z,99315.56
2024-01-05T19:36:16.115Z,99312.22
2024-01-05T19:38:55.158Z,99316.75
2024-01-05T19:41:26.005Z,99309.00
2024-01-05T19:43:58.410Z,99293.47
2024-01-05T19:46:34.722Z,99294.81
2024-01-05T19:49:05.121Z,99287.88
2024-01-05T19:51:37.906Z,99294.31
2024-01-05T19:54:11.216Z,99290.25
2024-01-05T19:56:41.593Z,99297.44
2024-01-05T19:59:12.457Z,99294.19
2024-01-05T20:01:47.383Z,99290.75
2024-01-05T20:04:27.340Z,99290.75
2024-01-05T20:06:57.694Z,99287.53
2024-01-05T20:09:31.687Z,99283.47
2024-01-05T20:12:04.721Z,99283.69
2024-01-05T20:14:38.195Z,99280.00
2024-01-05T20:17:08.549Z,99285.25
2024-01-05T20:19:41.772Z,99279.78
2024-01-05T20:22:14.626Z,99280.03
2024-01-05T20:24:50.700Z,99277.13
2024-01-05T20:27:23.504Z,99274.06
2024-01-05T20:29:55.369Z,99275.72
2024-01-05T20:32:25.792Z,99276.22
2024-01-05T20:34:59.807Z,99280.50
2024-01-05T20:37:30.707Z,99281.22
2024-01-05T20:40:04.038Z,99267.75
2024-01-05T20:42:38.571Z,99266.69
2024-01-05T20:45:13.025Z,99269.31
2024-01-05T20:47:43.730Z,99263.09
2024-01-05T20:50:14.127Z,99256.75
2024-01-05T20:52:50.822Z,99259.38
2024-01-05T20:55:31.324Z,99253.06
2024-01-05T20:58:03.315Z,99249.00
2024-01-05T21:00:33.919Z,99245.41
2024-01-05T21:03:04.745Z,99233.53
2024-01-05T21:05:35.828Z,99237.81
2024-01-05T21:08:08.074Z,99230.78
2024-01-05T21:10:44.554Z,99218.50
2024-01-05T21:13:16.306Z,99226.72
2024-01-05T21:15:50.892Z,99216.81
2024-01-05T21:18:29.974Z,99207.03
2024-01-05T21:21:02.216Z,99212.91
2024-01-05T21:23:32.967Z,99215.28
2024-01-05T21:26:07.338Z,99218.13
2024-01-05T21:28:40.737Z,99218.59
2024-01-05T21:31:13.632Z,99215.41
2024-01-05T21:33:46.158Z,99220.75
2024-01-05T21:36:19.874Z,99220.88
2024-01-05T21:38:50.728Z,99228.97
2024-01-05T21:41:26.170Z,99214.41
2024-01-05T21:43:58.509Z,99214.16
2024-01-05T21:46:31.440Z,99217.28
2024-01-05T21:49:09.080Z,99224.66
2024-01-05T21:51:47.517Z,99214.72
2024-01-05T21:54:22.092Z,99222.81
2024-01-05T21:56:55.511Z,99211.50
2024-01-05T21:59:36.732Z,99209.22
2024-01-05T22:02:08.112Z,99209.34
2024-01-05T22:04:41.777Z,99193.38
2024-01-05T22:07:12.958Z,99202.63
2024-01-05T22:09:46.325Z,99197.97
2024-01-05T22:12:19.429Z,99191.75
2024-01-05T22:14:53.314Z,99181.34
2024-01-05T22:17:24.384Z,99186.22
2024-01-05T22:19:58.335Z,99181.00
2024-01-05T22:22:29.626Z,99180.47
2024-01-05T22:24:59.963Z,99178.59
2024-01-05T22:27:36.020Z,99175.56
2024-01-05T22:30:10.153Z,99172.25
2024-01-05T22:32:44.833Z,99173.31
2024-01-05T22:35:15.725Z,99166.19
2024-01-05T22:37:47.953Z,99174.63
2024-01-05T22:40:21.655Z,99172.63
2024-01-05T22:42:55.448Z,99174.19
2024-01-05T22:45:28.593Z,99172.53
2024-01-05T22:47:59.896Z,99170.53
2024-01-05T22:50:33.873Z,99171.97
2024-01-05T22:53:06.237Z,99179.81
2024-01-05T22:55:36.458Z,99168.53
2024-01-05T22:58:09.933Z,99165.69
2024-01-05T23:00:42.349Z,99168.28
2024-01-05T23:03:15.532Z,99163.72
2024-01-05T23:05:50.403Z,99161.81
2024-01-05T23:08:24.049Z,99159.19
2024-01-05T23:10:55.690Z,99157.16
2024-01-05T23:13:29.105Z,99159.66
2024-01-05T23:15:59.356Z,99142.78
2024-01-05T23:18:32.228Z,99155.16
2024-01-05T23:21:12.200Z,99150.03
2024-01-05T23:23:49.900Z,99148.25
2024-01-05T23:26:26.706Z,99149.91
2024-01-05T23:29:04.355Z,99144.91
2024-01-05T23:31:43.692Z,99144.06
2024-01-05T23:34:17.101Z,99139.69
2024-01-05T23:36:53.046Z,99134.00
2024-01-05T23:39:24.760Z,99133.38
2024-01-05T23:41:58.792Z,99122.91
2024-01-05T23:44:38.193Z,99131.59
2024-01-05T23:47:09.420Z,99131.59
2024-01-05T23:49:48.632Z,99137.56
2024-01-05T23:52:19.736Z,99131.97
2024-01-05T23:54:50.966Z,99117.81
2024-01-05T23:57:28.403Z,99117.38
